IN-0035 weather

Sevoke Road Indian Army Heliport
Salugara, West Bengal, India

Public forecast

Using degrees Celsius for public forecast. Weather courtesy of forecast.io.

Closest aviation weather report (METAR) to Sevoke Road Indian Army Heliport

Closest report is Bagdogra Airport, 8.7 nm (16.1 km) SW. Retrieved 2020/08/08 07:30 UTC (51 minutes ago):

VEBD 080730Z VRB02KT 6000 SCT020 FEW030CB BKN090 34/26 Q0999 TEMPO TSRA

Closest aviation forecast (TAF) to Sevoke Road Indian Army Heliport

Closest forecast is Bagdogra Airport, 8.7 nm (16.1 km) SW. Retrieved 2020/08/08 06:30 UTC (2 hours ago):

TAF VEBD 080330Z 0806/0818 09005KT 6000 SCT025 SCT100 BKN250 TEMPO 0809/0813 2000 TSRA SCT020 FEW030CB BKN080